sensor_id;sensor_type;location;lat;lon;timestamp;temperature;humidity
71177;DHT22;58877;51.992;4.504;2024-03-02T00:00:07;8.37;82.69
71177;DHT22;58877;51.992;4.504;2024-03-02T00:02:41;8.29;83.00
71177;DHT22;58877;51.992;4.504;2024-03-02T00:05:07;8.37;83.17
71177;DHT22;58877;51.992;4.504;2024-03-02T00:07:33;8.35;83.00
71177;DHT22;58877;51.992;4.504;2024-03-02T00:09:59;8.25;82.85
71177;DHT22;58877;51.992;4.504;2024-03-02T00:12:25;8.26;83.01
71177;DHT22;58877;51.992;4.504;2024-03-02T00:14:51;8.12;82.58
71177;DHT22;58877;51.992;4.504;2024-03-02T00:17:25;8.10;83.19
71177;DHT22;58877;51.992;4.504;2024-03-02T00:19:51;8.13;82.87
71177;DHT22;58877;51.992;4.504;2024-03-02T00:22:18;8.22;82.93
71177;DHT22;58877;51.992;4.504;2024-03-02T00:24:43;8.15;82.61
71177;DHT22;58877;51.992;4.504;2024-03-02T00:27:13;8.13;83.06
71177;DHT22;58877;51.992;4.504;2024-03-02T00:29:40;8.17;82.80
71177;DHT22;58877;51.992;4.504;2024-03-02T00:32:16;8.06;82.91
71177;DHT22;58877;51.992;4.504;2024-03-02T00:34:42;8.10;82.99
71177;DHT22;58877;51.992;4.504;2024-03-02T00:37:08;8.03;82.89
71177;DHT22;58877;51.992;4.504;2024-03-02T00:39:34;8.02;83.12
71177;DHT22;58877;51.992;4.504;2024-03-02T00:42:00;8.03;83.17
71177;DHT22;58877;51.992;4.504;2024-03-02T00:44:26;8.07;83.07
71177;DHT22;58877;51.992;4.504;2024-03-02T00:46:53;8.10;82.83
71177;DHT22;58877;51.992;4.504;2024-03-02T00:49:20;8.12;82.73
71177;DHT22;58877;51.992;4.504;2024-03-02T00:51:49;8.03;82.68
71177;DHT22;58877;51.992;4.504;2024-03-02T00:54:19;7.93;83.18
71177;DHT22;58877;51.992;4.504;2024-03-02T00:56:47;7.98;83.13
71177;DHT22;58877;51.992;4.504;2024-03-02T00:59:12;7.98;83.00
71177;DHT22;58877;51.992;4.504;2024-03-02T01:01:38;7.99;82.73
71177;DHT22;58877;51.992;4.504;2024-03-02T01:04:04;8.06;82.91
71177;DHT22;58877;51.992;4.504;2024-03-02T01:06:31;8.10;82.62
71177;DHT22;58877;51.992;4.504;2024-03-02T01:08:56;7.98;82.22
71177;DHT22;58877;51.992;4.504;2024-03-02T01:11:22;8.03;82.30
71177;DHT22;58877;51.992;4.504;2024-03-02T01:13:48;8.02;82.33
71177;DHT22;58877;51.992;4.504;2024-03-02T01:16:14;8.01;82.13
71177;DHT22;58877;51.992;4.504;2024-03-02T01:18:41;8.01;82.21
71177;DHT22;58877;51.992;4.504;2024-03-02T01:21:07;8.02;82.24
71177;DHT22;58877;51.992;4.504;2024-03-02T01:23:33;8.07;82.18
71177;DHT22;58877;51.992;4.504;2024-03-02T01:25:59;8.06;82.09
71177;DHT22;58877;51.992;4.504;2024-03-02T01:28:24;8.03;81.99
71177;DHT22;58877;51.992;4.504;2024-03-02T01:30:50;8.03;81.87
71177;DHT22;58877;51.992;4.504;2024-03-02T01:33:19;8.05;81.75
71177;DHT22;58877;51.992;4.504;2024-03-02T01:35:45;7.95;81.56
71177;DHT22;58877;51.992;4.504;2024-03-02T01:38:11;7.95;82.10
71177;DHT22;58877;51.992;4.504;2024-03-02T01:40:37;7.85;82.27
71177;DHT22;58877;51.992;4.504;2024-03-02T01:43:04;7.92;82.38
71177;DHT22;58877;51.992;4.504;2024-03-02T01:45:35;7.96;82.25
71177;DHT22;58877;51.992;4.504;2024-03-02T01:48:01;7.92;82.09
71177;DHT22;58877;51.992;4.504;2024-03-02T01:50:28;7.96;82.29
71177;DHT22;58877;51.992;4.504;2024-03-02T01:52:58;7.89;82.55
71177;DHT22;58877;51.992;4.504;2024-03-02T01:55:24;7.88;82.47
71177;DHT22;58877;51.992;4.504;2024-03-02T01:57:51;7.93;82.65
71177;DHT22;58877;51.992;4.504;2024-03-02T02:00:19;7.93;82.60
71177;DHT22;58877;51.992;4.504;2024-03-02T02:02:46;7.96;82.73
71177;DHT22;58877;51.992;4.504;2024-03-02T02:05:12;8.03;82.47
71177;DHT22;58877;51.992;4.504;2024-03-02T02:07:40;8.01;82.50
71177;DHT22;58877;51.992;4.504;2024-03-02T02:10:06;8.03;82.23
71177;DHT22;58877;51.992;4.504;2024-03-02T02:12:32;7.96;82.55
71177;DHT22;58877;51.992;4.504;2024-03-02T02:14:58;7.96;82.68
71177;DHT22;58877;51.992;4.504;2024-03-02T02:17:23;7.92;82.67
71177;DHT22;58877;51.992;4.504;2024-03-02T02:19:49;8.02;82.63
71177;DHT22;58877;51.992;4.504;2024-03-02T02:22:14;8.09;82.43
71177;DHT22;58877;51.992;4.504;2024-03-02T02:24:41;8.06;82.27
71177;DHT22;58877;51.992;4.504;2024-03-02T02:27:08;8.10;82.18
71177;DHT22;58877;51.992;4.504;2024-03-02T02:29:34;8.13;82.25
71177;DHT22;58877;51.992;4.504;2024-03-02T02:32:00;8.19;82.00
71177;DHT22;58877;51.992;4.504;2024-03-02T02:34:25;8.13;81.73
71177;DHT22;58877;51.992;4.504;2024-03-02T02:36:51;8.13;81.81
71177;DHT22;58877;51.992;4.504;2024-03-02T02:39:22;7.99;82.06
71177;DHT22;58877;51.992;4.504;2024-03-02T02:41:48;8.03;82.03
71177;DHT22;58877;51.992;4.504;2024-03-02T02:44:14;8.07;81.93
71177;DHT22;58877;51.992;4.504;2024-03-02T02:46:40;8.02;81.62
71177;DHT22;58877;51.992;4.504;2024-03-02T02:49:06;8.02;81.54
71177;DHT22;58877;51.992;4.504;2024-03-02T02:51:31;8.01;81.56
71177;DHT22;58877;51.992;4.504;2024-03-02T02:53:57;7.99;81.40
71177;DHT22;58877;51.992;4.504;2024-03-02T02:56:23;7.99;81.28
71177;DHT22;58877;51.992;4.504;2024-03-02T02:58:51;7.86;81.50
71177;DHT22;58877;51.992;4.504;2024-03-02T03:01:17;7.86;81.70
71177;DHT22;58877;51.992;4.504;2024-03-02T03:03:46;7.85;81.87
71177;DHT22;58877;51.992;4.504;2024-03-02T03:06:12;7.84;82.14
71177;DHT22;58877;51.992;4.504;2024-03-02T03:08:38;7.88;82.17
71177;DHT22;58877;51.992;4.504;2024-03-02T03:11:04;7.91;82.02
71177;DHT22;58877;51.992;4.504;2024-03-02T03:13:33;7.92;81.95
71177;DHT22;58877;51.992;4.504;2024-03-02T03:15:59;7.96;81.96
71177;DHT22;58877;51.992;4.504;2024-03-02T03:18:25;7.99;82.10
71177;DHT22;58877;51.992;4.504;2024-03-02T03:20:53;8.05;81.91
71177;DHT22;58877;51.992;4.504;2024-03-02T03:23:19;8.10;81.74
71177;DHT22;58877;51.992;4.504;2024-03-02T03:25:47;8.13;81.78
71177;DHT22;58877;51.992;4.504;2024-03-02T03:28:13;8.12;81.63
71177;DHT22;58877;51.992;4.504;2024-03-02T03:30:39;8.17;81.68
71177;DHT22;58877;51.992;4.504;2024-03-02T03:33:05;8.19;81.39
71177;DHT22;58877;51.992;4.504;2024-03-02T03:35:34;8.26;81.19
71177;DHT22;58877;51.992;4.504;2024-03-02T03:38:00;8.26;81.14
71177;DHT22;58877;51.992;4.504;2024-03-02T03:40:25;8.28;81.01
71177;DHT22;58877;51.992;4.504;2024-03-02T03:42:51;8.22;80.97
71177;DHT22;58877;51.992;4.504;2024-03-02T03:45:17;8.23;80.91
71177;DHT22;58877;51.992;4.504;2024-03-02T03:47:43;8.26;80.73
71177;DHT22;58877;51.992;4.504;2024-03-02T03:50:09;8.19;80.73
71177;DHT22;58877;51.992;4.504;2024-03-02T03:52:35;8.23;80.64
71177;DHT22;58877;51.992;4.504;2024-03-02T03:55:01;8.26;80.87
71177;DHT22;58877;51.992;4.504;2024-03-02T03:57:27;8.23;80.65
71177;DHT22;58877;51.992;4.504;2024-03-02T03:59:53;8.23;80.73
71177;DHT22;58877;51.992;4.504;2024-03-02T04:02:19;8.13;80.70
71177;DHT22;58877;51.992;4.504;2024-03-02T04:04:44;8.09;80.83
71177;DHT22;58877;51.992;4.504;2024-03-02T04:07:10;8.13;81.22
71177;DHT22;58877;51.992;4.504;2024-03-02T04:09:36;8.17;80.92
71177;DHT22;58877;51.992;4.504;2024-03-02T04:12:01;8.12;80.69
71177;DHT22;58877;51.992;4.504;2024-03-02T04:14:27;8.12;80.61
71177;DHT22;58877;51.992;4.504;2024-03-02T04:16:52;8.12;80.42
71177;DHT22;58877;51.992;4.504;2024-03-02T04:19:18;8.02;80.56
71177;DHT22;58877;51.992;4.504;2024-03-02T04:21:44;8.07;80.67
71177;DHT22;58877;51.992;4.504;2024-03-02T04:24:09;8.05;80.67
71177;DHT22;58877;51.992;4.504;2024-03-02T04:26:35;7.98;80.74
71177;DHT22;58877;51.992;4.504;2024-03-02T04:29:01;8.05;80.60
71177;DHT22;58877;51.992;4.504;2024-03-02T04:31:27;8.01;80.62
71177;DHT22;58877;51.992;4.504;2024-03-02T04:33:52;7.96;80.16
71177;DHT22;58877;51.992;4.504;2024-03-02T04:36:20;7.93;80.38
71177;DHT22;58877;51.992;4.504;2024-03-02T04:38:46;7.96;80.31
71177;DHT22;58877;51.992;4.504;2024-03-02T04:41:12;7.99;80.09
71177;DHT22;58877;51.992;4.504;2024-03-02T04:43:37;7.99;79.99
71177;DHT22;58877;51.992;4.504;2024-03-02T04:46:05;7.99;80.05
71177;DHT22;58877;51.992;4.504;2024-03-02T04:48:32;7.98;80.12
71177;DHT22;58877;51.992;4.504;2024-03-02T04:50:58;8.02;80.10
71177;DHT22;58877;51.992;4.504;2024-03-02T04:53:23;8.10;79.93
71177;DHT22;58877;51.992;4.504;2024-03-02T04:55:49;8.05;79.74
71177;DHT22;58877;51.992;4.504;2024-03-02T04:58:21;8.05;79.97
71177;DHT22;58877;51.992;4.504;2024-03-02T05:00:46;8.03;80.13
71177;DHT22;58877;51.992;4.504;2024-03-02T05:03:12;8.05;79.88
71177;DHT22;58877;51.992;4.504;2024-03-02T05:05:38;8.05;79.75
71177;DHT22;58877;51.992;4.504;2024-03-02T05:08:04;8.02;79.69
71177;DHT22;58877;51.992;4.504;2024-03-02T05:10:30;8.05;79.70
71177;DHT22;58877;51.992;4.504;2024-03-02T05:12:55;7.98;79.75
71177;DHT22;58877;51.992;4.504;2024-03-02T05:15:25;7.98;79.80
71177;DHT22;58877;51.992;4.504;2024-03-02T05:17:51;7.96;79.79
71177;DHT22;58877;51.992;4.504;2024-03-02T05:20:17;7.93;79.95
71177;DHT22;58877;51.992;4.504;2024-03-02T05:22:43;7.89;79.99
71177;DHT22;58877;51.992;4.504;2024-03-02T05:25:08;7.91;79.99
71177;DHT22;58877;51.992;4.504;2024-03-02T05:27:37;7.91;79.88
71177;DHT22;58877;51.992;4.504;2024-03-02T05:30:03;7.89;79.84
71177;DHT22;58877;51.992;4.504;2024-03-02T05:32:30;7.92;80.04
71177;DHT22;58877;51.992;4.504;2024-03-02T05:34:55;7.96;80.18
71177;DHT22;58877;51.992;4.504;2024-03-02T05:37:21;7.99;80.14
71177;DHT22;58877;51.992;4.504;2024-03-02T05:39:47;7.95;79.79
71177;DHT22;58877;51.992;4.504;2024-03-02T05:42:12;7.89;79.83
71177;DHT22;58877;51.992;4.504;2024-03-02T05:44:38;7.88;79.81
71177;DHT22;58877;51.992;4.504;2024-03-02T05:47:04;7.78;79.85
71177;DHT22;58877;51.992;4.504;2024-03-02T05:49:30;7.85;80.14
71177;DHT22;58877;51.992;4.504;2024-03-02T05:51:55;7.86;80.10
71177;DHT22;58877;51.992;4.504;2024-03-02T05:54:21;7.86;80.11
71177;DHT22;58877;51.992;4.504;2024-03-02T05:56:47;7.88;80.11
71177;DHT22;58877;51.992;4.504;2024-03-02T05:59:12;7.92;80.06
71177;DHT22;58877;51.992;4.504;2024-03-02T06:01:48;7.92;80.01
71177;DHT22;58877;51.992;4.504;2024-03-02T06:04:16;7.95;79.94
71177;DHT22;58877;51.992;4.504;2024-03-02T06:06:42;7.92;79.85
71177;DHT22;58877;51.992;4.504;2024-03-02T06:09:08;7.92;79.75
71177;DHT22;58877;51.992;4.504;2024-03-02T06:11:35;7.92;79.80
71177;DHT22;58877;51.992;4.504;2024-03-02T06:14:02;7.91;79.54
71177;DHT22;58877;51.992;4.504;2024-03-02T06:16:27;7.92;79.58
71177;DHT22;58877;51.992;4.504;2024-03-02T06:18:53;7.88;79.57
71177;DHT22;58877;51.992;4.504;2024-03-02T06:21:20;7.85;79.54
71177;DHT22;58877;51.992;4.504;2024-03-02T06:23:46;7.86;79.24
71177;DHT22;58877;51.992;4.504;2024-03-02T06:26:11;7.93;79.33
71177;DHT22;58877;51.992;4.504;2024-03-02T06:28:38;7.91;79.28
71177;DHT22;58877;51.992;4.504;2024-03-02T06:31:04;7.86;79.21
71177;DHT22;58877;51.992;4.504;2024-03-02T06:33:29;7.86;79.15
71177;DHT22;58877;51.992;4.504;2024-03-02T06:36:04;7.95;79.25
71177;DHT22;58877;51.992;4.504;2024-03-02T06:38:30;7.98;78.85
71177;DHT22;58877;51.992;4.504;2024-03-02T06:40:59;7.96;78.83
71177;DHT22;58877;51.992;4.504;2024-03-02T06:43:25;7.95;78.75
71177;DHT22;58877;51.992;4.504;2024-03-02T06:45:52;7.99;78.73
71177;DHT22;58877;51.992;4.504;2024-03-02T06:48:19;8.01;78.45
71177;DHT22;58877;51.992;4.504;2024-03-02T06:50:47;8.01;78.26
71177;DHT22;58877;51.992;4.504;2024-03-02T06:53:13;7.91;78.21
71177;DHT22;58877;51.992;4.504;2024-03-02T06:55:45;7.85;78.28
71177;DHT22;58877;51.992;4.504;2024-03-02T06:58:13;7.84;78.35
71177;DHT22;58877;51.992;4.504;2024-03-02T07:00:40;7.75;78.34
71177;DHT22;58877;51.992;4.504;2024-03-02T07:03:06;7.70;78.36
71177;DHT22;58877;51.992;4.504;2024-03-02T07:05:31;7.64;78.46
71177;DHT22;58877;51.992;4.504;2024-03-02T07:07:57;7.62;78.58
71177;DHT22;58877;51.992;4.504;2024-03-02T07:10:23;7.61;78.77
71177;DHT22;58877;51.992;4.504;2024-03-02T07:12:49;7.61;78.82
71177;DHT22;58877;51.992;4.504;2024-03-02T07:15:15;7.57;78.73
71177;DHT22;58877;51.992;4.504;2024-03-02T07:18:11;7.71;78.64
71177;DHT22;58877;51.992;4.504;2024-03-02T07:20:36;7.70;78.50
71177;DHT22;58877;51.992;4.504;2024-03-02T07:23:04;7.71;78.25
71177;DHT22;58877;51.992;4.504;2024-03-02T07:25:34;7.68;78.45
71177;DHT22;58877;51.992;4.504;2024-03-02T07:28:00;7.67;78.47
71177;DHT22;58877;51.992;4.504;2024-03-02T07:30:25;7.67;78.46
71177;DHT22;58877;51.992;4.504;2024-03-02T07:32:51;7.75;78.51
71177;DHT22;58877;51.992;4.504;2024-03-02T07:35:16;7.81;78.21
71177;DHT22;58877;51.992;4.504;2024-03-02T07:37:43;7.75;78.09
71177;DHT22;58877;51.992;4.504;2024-03-02T07:40:10;7.78;78.44
71177;DHT22;58877;51.992;4.504;2024-03-02T07:42:42;7.89;78.53
71177;DHT22;58877;51.992;4.504;2024-03-02T07:45:08;8.01;78.14
71177;DHT22;58877;51.992;4.504;2024-03-02T07:47:34;8.05;78.13
71177;DHT22;58877;51.992;4.504;2024-03-02T07:50:00;8.02;77.78
71177;DHT22;58877;51.992;4.504;2024-03-02T07:52:26;8.10;77.80
71177;DHT22;58877;51.992;4.504;2024-03-02T07:54:51;8.22;77.75
71177;DHT22;58877;51.992;4.504;2024-03-02T07:57:17;8.28;77.59
71177;DHT22;58877;51.992;4.504;2024-03-02T07:59:48;8.42;77.44
71177;DHT22;58877;51.992;4.504;2024-03-02T08:02:14;8.40;76.87
71177;DHT22;58877;51.992;4.504;2024-03-02T08:04:40;8.40;77.04
71177;DHT22;58877;51.992;4.504;2024-03-02T08:07:06;8.47;77.25
71177;DHT22;58877;51.992;4.504;2024-03-02T08:09:32;8.59;76.82
71177;DHT22;58877;51.992;4.504;2024-03-02T08:11:58;8.61;76.60
71177;DHT22;58877;51.992;4.504;2024-03-02T08:14:26;8.69;76.62
71177;DHT22;58877;51.992;4.504;2024-03-02T08:16:52;8.64;76.28
71177;DHT22;58877;51.992;4.504;2024-03-02T08:19:18;8.56;76.39
71177;DHT22;58877;51.992;4.504;2024-03-02T08:21:44;8.61;76.44
71177;DHT22;58877;51.992;4.504;2024-03-02T08:24:10;8.73;76.22
71177;DHT22;58877;51.992;4.504;2024-03-02T08:26:35;8.85;76.00
71177;DHT22;58877;51.992;4.504;2024-03-02T08:29:01;8.90;75.68
71177;DHT22;58877;51.992;4.504;2024-03-02T08:31:29;8.90;75.41
71177;DHT22;58877;51.992;4.504;2024-03-02T08:33:54;8.96;75.44
71177;DHT22;58877;51.992;4.504;2024-03-02T08:36:25;9.07;75.51
71177;DHT22;58877;51.992;4.504;2024-03-02T08:38:51;9.14;74.80
71177;DHT22;58877;51.992;4.504;2024-03-02T08:41:17;9.14;74.76
71177;DHT22;58877;51.992;4.504;2024-03-02T08:43:43;9.08;74.60
71177;DHT22;58877;51.992;4.504;2024-03-02T08:46:08;9.17;74.67
71177;DHT22;58877;51.992;4.504;2024-03-02T08:48:34;9.17;74.40
71177;DHT22;58877;51.992;4.504;2024-03-02T08:51:00;9.10;74.44
71177;DHT22;58877;51.992;4.504;2024-03-02T08:53:26;9.08;74.22
71177;DHT22;58877;51.992;4.504;2024-03-02T08:55:51;9.14;74.47
71177;DHT22;58877;51.992;4.504;2024-03-02T08:58:17;9.18;74.20
71177;DHT22;58877;51.992;4.504;2024-03-02T09:00:43;9.15;74.04
71177;DHT22;58877;51.992;4.504;2024-03-02T09:03:09;9.15;74.00
71177;DHT22;58877;51.992;4.504;2024-03-02T09:05:35;9.18;73.89
71177;DHT22;58877;51.992;4.504;2024-03-02T09:08:00;9.21;73.84
71177;DHT22;58877;51.992;4.504;2024-03-02T09:10:26;9.20;73.95
71177;DHT22;58877;51.992;4.504;2024-03-02T09:12:52;9.38;73.86
71177;DHT22;58877;51.992;4.504;2024-03-02T09:15:17;9.49;73.53
71177;DHT22;58877;51.992;4.504;2024-03-02T09:17:43;9.49;73.26
71177;DHT22;58877;51.992;4.504;2024-03-02T09:20:10;9.62;73.50
71177;DHT22;58877;51.992;4.504;2024-03-02T09:22:36;9.74;73.23
71177;DHT22;58877;51.992;4.504;2024-03-02T09:25:02;9.79;72.95
71177;DHT22;58877;51.992;4.504;2024-03-02T09:27:27;9.85;72.39
71177;DHT22;58877;51.992;4.504;2024-03-02T09:29:53;9.89;71.74
71177;DHT22;58877;51.992;4.504;2024-03-02T09:32:19;9.89;71.67
71177;DHT22;58877;51.992;4.504;2024-03-02T09:34:45;9.87;71.40
71177;DHT22;58877;51.992;4.504;2024-03-02T09:37:10;9.89;71.02
71177;DHT22;58877;51.992;4.504;2024-03-02T09:39:37;9.96;71.11
71177;DHT22;58877;51.992;4.504;2024-03-02T09:42:04;10.03;70.48
71177;DHT22;58877;51.992;4.504;2024-03-02T09:44:30;10.13;70.66
71177;DHT22;58877;51.992;4.504;2024-03-02T09:46:55;10.14;70.17
71177;DHT22;58877;51.992;4.504;2024-03-02T09:49:21;10.23;70.38
71177;DHT22;58877;51.992;4.504;2024-03-02T09:51:48;10.39;70.29
71177;DHT22;58877;51.992;4.504;2024-03-02T09:54:15;10.50;70.18
71177;DHT22;58877;51.992;4.504;2024-03-02T09:56:44;10.57;69.47
71177;DHT22;58877;51.992;4.504;2024-03-02T09:59:10;10.67;69.42
71177;DHT22;58877;51.992;4.504;2024-03-02T10:01:36;10.81;68.86
71177;DHT22;58877;51.992;4.504;2024-03-02T10:04:01;10.85;68.74
71177;DHT22;58877;51.992;4.504;2024-03-02T10:06:33;10.87;68.17
71177;DHT22;58877;51.992;4.504;2024-03-02T10:08:59;10.95;68.02
71177;DHT22;58877;51.992;4.504;2024-03-02T10:11:35;10.91;67.52
71177;DHT22;58877;51.992;4.504;2024-03-02T10:14:13;10.78;67.60
71177;DHT22;58877;51.992;4.504;2024-03-02T10:16:43;10.85;67.95
71177;DHT22;58877;51.992;4.504;2024-03-02T10:21:42;11.21;67.58
71177;DHT22;58877;51.992;4.504;2024-03-02T10:24:07;11.25;67.15
71177;DHT22;58877;51.992;4.504;2024-03-02T10:26:33;11.32;66.39
71177;DHT22;58877;51.992;4.504;2024-03-02T10:28:59;11.34;65.83
71177;DHT22;58877;51.992;4.504;2024-03-02T10:31:25;11.29;66.04
71177;DHT22;58877;51.992;4.504;2024-03-02T10:33:57;11.43;65.82
71177;DHT22;58877;51.992;4.504;2024-03-02T10:36:23;11.48;65.51
71177;DHT22;58877;51.992;4.504;2024-03-02T10:38:52;11.46;64.56
71177;DHT22;58877;51.992;4.504;2024-03-02T10:41:23;11.34;64.46
71177;DHT22;58877;51.992;4.504;2024-03-02T10:43:52;11.42;65.55
71177;DHT22;58877;51.992;4.504;2024-03-02T10:46:22;11.49;65.24
71177;DHT22;58877;51.992;4.504;2024-03-02T10:48:48;11.45;63.96
71177;DHT22;58877;51.992;4.504;2024-03-02T10:51:15;11.35;63.62
71177;DHT22;58877;51.992;4.504;2024-03-02T10:53:40;11.32;63.67
71177;DHT22;58877;51.992;4.504;2024-03-02T10:56:07;11.24;63.60
71177;DHT22;58877;51.992;4.504;2024-03-02T10:58:36;11.21;63.74
71177;DHT22;58877;51.992;4.504;2024-03-02T11:01:03;11.15;63.71
71177;DHT22;58877;51.992;4.504;2024-03-02T11:03:35;11.19;63.53
71177;DHT22;58877;51.992;4.504;2024-03-02T11:06:08;11.21;63.17
71177;DHT22;58877;51.992;4.504;2024-03-02T11:08:36;11.36;62.79
71177;DHT22;58877;51.992;4.504;2024-03-02T11:11:14;11.54;62.22
71177;DHT22;58877;51.992;4.504;2024-03-02T11:13:47;11.67;61.65
71177;DHT22;58877;51.992;4.504;2024-03-02T11:16:36;11.73;61.56
71177;DHT22;58877;51.992;4.504;2024-03-02T11:19:14;11.80;61.48
71177;DHT22;58877;51.992;4.504;2024-03-02T11:21:41;11.72;60.80
71177;DHT22;58877;51.992;4.504;2024-03-02T11:26:51;11.79;60.30
71177;DHT22;58877;51.992;4.504;2024-03-02T11:32:03;12.06;59.99
71177;DHT22;58877;51.992;4.504;2024-03-02T11:34:34;12.12;59.97
71177;DHT22;58877;51.992;4.504;2024-03-02T11:37:04;12.30;59.48
71177;DHT22;58877;51.992;4.504;2024-03-02T11:39:30;12.33;58.44
71177;DHT22;58877;51.992;4.504;2024-03-02T11:41:57;12.44;59.14
71177;DHT22;58877;51.992;4.504;2024-03-02T11:44:29;12.68;58.78
71177;DHT22;58877;51.992;4.504;2024-03-02T11:46:59;12.89;57.94
71177;DHT22;58877;51.992;4.504;2024-03-02T11:49:45;13.06;57.22
71177;DHT22;58877;51.992;4.504;2024-03-02T11:52:13;13.29;57.80
71177;DHT22;58877;51.992;4.504;2024-03-02T11:54:43;13.34;57.66
71177;DHT22;58877;51.992;4.504;2024-03-02T11:57:15;13.40;57.00
71177;DHT22;58877;51.992;4.504;2024-03-02T11:59:42;13.48;56.22
71177;DHT22;58877;51.992;4.504;2024-03-02T12:02:15;13.45;55.62
71177;DHT22;58877;51.992;4.504;2024-03-02T12:04:43;13.34;55.87
71177;DHT22;58877;51.992;4.504;2024-03-02T12:07:11;13.25;55.97
71177;DHT22;58877;51.992;4.504;2024-03-02T12:09:40;13.32;56.35
71177;DHT22;58877;51.992;4.504;2024-03-02T12:12:08;13.30;55.93
71177;DHT22;58877;51.992;4.504;2024-03-02T12:14:38;13.40;56.26
71177;DHT22;58877;51.992;4.504;2024-03-02T12:17:06;13.46;56.77
71177;DHT22;58877;51.992;4.504;2024-03-02T12:19:33;13.59;57.25
71177;DHT22;58877;51.992;4.504;2024-03-02T12:22:00;13.60;56.39
71177;DHT22;58877;51.992;4.504;2024-03-02T12:24:30;13.67;55.70
71177;DHT22;58877;51.992;4.504;2024-03-02T12:26:56;13.67;54.98
71177;DHT22;58877;51.992;4.504;2024-03-02T12:29:22;13.77;55.68
71177;DHT22;58877;51.992;4.504;2024-03-02T12:31:52;13.77;55.78
71177;DHT22;58877;51.992;4.504;2024-03-02T12:34:18;13.71;55.02
71177;DHT22;58877;51.992;4.504;2024-03-02T12:36:46;13.73;54.02
71177;DHT22;58877;51.992;4.504;2024-03-02T12:39:18;13.76;53.65
71177;DHT22;58877;51.992;4.504;2024-03-02T12:41:45;13.76;53.58
71177;DHT22;58877;51.992;4.504;2024-03-02T12:44:11;13.99;54.98
71177;DHT22;58877;51.992;4.504;2024-03-02T12:46:37;14.17;53.82
71177;DHT22;58877;51.992;4.504;2024-03-02T12:49:16;14.17;53.38
71177;DHT22;58877;51.992;4.504;2024-03-02T12:51:42;14.10;53.58
71177;DHT22;58877;51.992;4.504;2024-03-02T12:54:10;14.16;53.76
71177;DHT22;58877;51.992;4.504;2024-03-02T12:56:37;14.14;53.33
71177;DHT22;58877;51.992;4.504;2024-03-02T12:59:03;14.14;53.34
71177;DHT22;58877;51.992;4.504;2024-03-02T13:01:29;14.04;53.30
71177;DHT22;58877;51.992;4.504;2024-03-02T13:03:58;14.13;53.73
71177;DHT22;58877;51.992;4.504;2024-03-02T13:06:25;14.31;53.59
71177;DHT22;58877;51.992;4.504;2024-03-02T13:08:53;14.55;53.26
71177;DHT22;58877;51.992;4.504;2024-03-02T13:11:23;14.58;53.45
71177;DHT22;58877;51.992;4.504;2024-03-02T13:13:50;14.37;53.38
71177;DHT22;58877;51.992;4.504;2024-03-02T13:16:16;14.21;53.85
71177;DHT22;58877;51.992;4.504;2024-03-02T13:18:44;14.23;54.24
71177;DHT22;58877;51.992;4.504;2024-03-02T13:21:10;14.30;54.11
71177;DHT22;58877;51.992;4.504;2024-03-02T13:23:36;14.30;53.71
71177;DHT22;58877;51.992;4.504;2024-03-02T13:26:02;14.28;53.58
71177;DHT22;58877;51.992;4.504;2024-03-02T13:28:32;14.24;53.32
71177;DHT22;58877;51.992;4.504;2024-03-02T13:30:58;14.20;52.97
71177;DHT22;58877;51.992;4.504;2024-03-02T13:33:24;14.30;53.55
71177;DHT22;58877;51.992;4.504;2024-03-02T13:35:50;14.25;53.61
71177;DHT22;58877;51.992;4.504;2024-03-02T13:38:18;14.54;53.86
71177;DHT22;58877;51.992;4.504;2024-03-02T13:40:44;14.58;53.08
71177;DHT22;58877;51.992;4.504;2024-03-02T13:43:11;14.61;53.03
71177;DHT22;58877;51.992;4.504;2024-03-02T13:45:38;14.51;53.32
71177;DHT22;58877;51.992;4.504;2024-03-02T13:48:04;14.38;53.78
71177;DHT22;58877;51.992;4.504;2024-03-02T13:50:29;14.37;54.28
71177;DHT22;58877;51.992;4.504;2024-03-02T13:52:56;14.44;54.70
71177;DHT22;58877;51.992;4.504;2024-03-02T13:55:22;14.48;53.85
71177;DHT22;58877;51.992;4.504;2024-03-02T13:57:49;14.51;55.11
71177;DHT22;58877;51.992;4.504;2024-03-02T14:00:19;14.45;54.78
71177;DHT22;58877;51.992;4.504;2024-03-02T14:02:45;14.31;54.44
71177;DHT22;58877;51.992;4.504;2024-03-02T14:05:11;14.27;54.27
71177;DHT22;58877;51.992;4.504;2024-03-02T14:07:43;14.33;55.02
71177;DHT22;58877;51.992;4.504;2024-03-02T14:10:09;14.34;54.72
71177;DHT22;58877;51.992;4.504;2024-03-02T14:12:36;14.28;54.64
71177;DHT22;58877;51.992;4.504;2024-03-02T14:15:07;14.34;54.80
71177;DHT22;58877;51.992;4.504;2024-03-02T14:17:34;14.37;54.86
71177;DHT22;58877;51.992;4.504;2024-03-02T14:19:59;14.37;54.47
71177;DHT22;58877;51.992;4.504;2024-03-02T14:22:25;14.49;54.67
71177;DHT22;58877;51.992;4.504;2024-03-02T14:24:51;14.57;54.55
71177;DHT22;58877;51.992;4.504;2024-03-02T14:27:16;14.64;54.46
71177;DHT22;58877;51.992;4.504;2024-03-02T14:29:43;14.61;53.94
71177;DHT22;58877;51.992;4.504;2024-03-02T14:32:08;14.74;54.41
71177;DHT22;58877;51.992;4.504;2024-03-02T14:34:34;14.93;54.20
71177;DHT22;58877;51.992;4.504;2024-03-02T14:37:03;15.03;54.15
71177;DHT22;58877;51.992;4.504;2024-03-02T14:39:29;15.00;53.49
71177;DHT22;58877;51.992;4.504;2024-03-02T14:41:57;14.99;54.19
71177;DHT22;58877;51.992;4.504;2024-03-02T14:44:23;14.78;53.13
71177;DHT22;58877;51.992;4.504;2024-03-02T14:46:49;14.81;54.28
71177;DHT22;58877;51.992;4.504;2024-03-02T14:49:16;14.91;54.14
71177;DHT22;58877;51.992;4.504;2024-03-02T14:51:44;14.98;54.35
71177;DHT22;58877;51.992;4.504;2024-03-02T14:54:09;14.95;54.17
71177;DHT22;58877;51.992;4.504;2024-03-02T14:56:35;14.65;53.14
71177;DHT22;58877;51.992;4.504;2024-03-02T14:59:01;14.45;53.86
71177;DHT22;58877;51.992;4.504;2024-03-02T15:01:28;14.34;54.68
71177;DHT22;58877;51.992;4.504;2024-03-02T15:03:54;14.31;54.84
71177;DHT22;58877;51.992;4.504;2024-03-02T15:06:20;14.20;54.64
71177;DHT22;58877;51.992;4.504;2024-03-02T15:08:46;14.07;55.44
71177;DHT22;58877;51.992;4.504;2024-03-02T15:11:13;14.09;55.85
71177;DHT22;58877;51.992;4.504;2024-03-02T15:13:39;14.17;55.71
71177;DHT22;58877;51.992;4.504;2024-03-02T15:16:08;14.23;56.02
71177;DHT22;58877;51.992;4.504;2024-03-02T15:18:34;14.28;56.26
71177;DHT22;58877;51.992;4.504;2024-03-02T15:21:11;14.37;56.41
71177;DHT22;58877;51.992;4.504;2024-03-02T15:23:36;14.51;55.50
71177;DHT22;58877;51.992;4.504;2024-03-02T15:26:03;14.63;55.56
71177;DHT22;58877;51.992;4.504;2024-03-02T15:28:28;14.88;55.06
71177;DHT22;58877;51.992;4.504;2024-03-02T15:30:54;15.03;54.55
71177;DHT22;58877;51.992;4.504;2024-03-02T15:33:21;15.15;54.07
71177;DHT22;58877;51.992;4.504;2024-03-02T15:35:53;15.20;54.43
71177;DHT22;58877;51.992;4.504;2024-03-02T15:38:18;15.13;53.32
71177;DHT22;58877;51.992;4.504;2024-03-02T15:40:44;14.96;53.81
71177;DHT22;58877;51.992;4.504;2024-03-02T15:43:10;14.88;54.56
71177;DHT22;58877;51.992;4.504;2024-03-02T15:45:36;14.78;54.75